Time;durP1;ratioP1;P1;durP2;ratioP2;P2;SDS_P1;SDS_P2;PMS_P1;PMS_P2;Temp;Humidity;BMP_temperature;BMP_pressure;BME280_temperature;BME280_humidity;BME280_pressure;Samples;Min_cycle;Max_cycle;Signal;HPM_P1;HPM_P2
2022/05/07 00:02:17;;;;;;;15.77;14.37;;;9.80;99.90;;;;;;5104847;27;20241;-76
2022/05/07 00:04:45;;;;;;;15.37;13.97;;;9.80;99.90;;;;;;5090826;28;20292;-76
2022/05/07 00:07:12;;;;;;;14.63;13.33;;;9.70;99.90;;;;;;5099211;28;20193;-77
2022/05/07 00:09:40;;;;;;;14.20;12.90;;;9.70;99.90;;;;;;5105108;28;20189;-76
2022/05/07 00:12:08;;;;;;;14.30;13.10;;;9.60;99.90;;;;;;5102363;28;20221;-77
2022/05/07 00:14:35;;;;;;;15.60;14.10;;;9.60;99.90;;;;;;5096593;28;20189;-76
2022/05/07 00:19:47;;;;;;;15.73;14.27;;;9.40;99.90;;;;;;5075663;28;20201;-76
2022/05/07 00:22:15;;;;;;;16.00;14.70;;;9.40;99.90;;;;;;5102652;28;20213;-77
2022/05/07 00:24:42;;;;;;;16.30;14.80;;;9.40;99.90;;;;;;5105143;28;20572;-76
2022/05/07 00:27:09;;;;;;;17.37;15.77;;;9.40;99.90;;;;;;5099913;28;20570;-76
2022/05/07 00:29:36;;;;;;;17.67;16.07;;;9.40;99.90;;;;;;5100365;28;20241;-77
2022/05/07 00:32:03;;;;;;;17.87;16.23;;;9.30;99.90;;;;;;5100705;28;20230;-77
2022/05/07 00:34:30;;;;;;;17.70;15.97;;;9.30;99.90;;;;;;5103845;28;20220;-77
2022/05/07 00:36:59;;;;;;;17.83;16.27;;;9.30;99.90;;;;;;5102440;28;20276;-77
2022/05/07 00:39:26;;;;;;;17.77;16.10;;;9.20;99.90;;;;;;5103442;28;20199;-75
2022/05/07 00:41:53;;;;;;;17.70;16.20;;;9.30;99.90;;;;;;5092227;28;20249;-76
2022/05/07 00:44:22;;;;;;;16.23;14.83;;;9.20;99.90;;;;;;5089241;28;20745;-78
2022/05/07 00:46:50;;;;;;;15.33;14.03;;;9.20;99.90;;;;;;5105605;28;20288;-77
2022/05/07 00:49:19;;;;;;;16.43;15.03;;;9.10;99.90;;;;;;5101067;28;20189;-76
2022/05/07 00:51:45;;;;;;;15.67;14.37;;;9.10;99.90;;;;;;5103527;28;20269;-78
2022/05/07 00:54:14;;;;;;;15.50;14.13;;;9.10;99.90;;;;;;5102259;28;20188;-77
2022/05/07 00:56:41;;;;;;;17.53;15.77;;;9.00;99.90;;;;;;5101676;28;20202;-77
2022/05/07 00:59:09;;;;;;;15.53;14.13;;;8.90;99.90;;;;;;5099344;28;20289;-77
2022/05/07 01:01:36;;;;;;;15.67;14.37;;;8.90;99.90;;;;;;5102493;28;20569;-78
2022/05/07 01:04:04;;;;;;;15.60;14.30;;;8.90;99.90;;;;;;5102416;28;20756;-77
2022/05/07 01:06:34;;;;;;;18.13;16.43;;;8.90;99.90;;;;;;5102183;28;20201;-77
2022/05/07 01:09:03;;;;;;;18.07;16.47;;;8.80;99.90;;;;;;5098699;28;20227;-78
2022/05/07 01:11:34;;;;;;;18.10;16.20;;;8.80;99.90;;;;;;5101130;28;20200;-77
2022/05/07 01:14:03;;;;;;;18.47;16.60;;;8.80;99.90;;;;;;5099734;28;20212;-77
2022/05/07 01:16:32;;;;;;;18.07;16.30;;;8.80;99.90;;;;;;5099845;28;20287;-77
2022/05/07 01:19:00;;;;;;;20.10;16.37;;;8.80;99.90;;;;;;5100470;28;20297;-77
2022/05/07 01:21:28;;;;;;;16.77;15.27;;;8.70;99.90;;;;;;5103424;28;20618;-77
2022/05/07 01:23:58;;;;;;;17.73;16.13;;;8.70;99.90;;;;;;5102267;28;20217;-77
2022/05/07 01:26:29;;;;;;;17.63;15.97;;;8.70;99.90;;;;;;5095677;28;20203;-77
2022/05/07 01:29:00;;;;;;;18.53;16.83;;;8.60;99.90;;;;;;5096923;27;20193;-76
2022/05/07 01:31:29;;;;;;;18.23;16.30;;;8.60;99.90;;;;;;5105861;28;20253;-76
2022/05/07 01:33:56;;;;;;;17.80;16.17;;;8.50;99.90;;;;;;5103390;27;20614;-76
2022/05/07 01:36:25;;;;;;;17.20;15.70;;;8.40;99.90;;;;;;5104047;27;20197;-77
2022/05/07 01:39:00;;;;;;;17.33;15.77;;;8.40;99.90;;;;;;5105135;28;20207;-77
2022/05/07 01:41:27;;;;;;;19.37;17.30;;;8.40;99.90;;;;;;5107242;27;20193;-77
2022/05/07 01:43:55;;;;;;;17.37;15.77;;;8.40;99.90;;;;;;5116216;27;20224;-77
2022/05/07 01:49:10;;;;;;;18.73;17.03;;;8.30;99.90;;;;;;5105323;27;20204;-77
2022/05/07 01:51:37;;;;;;;18.10;16.50;;;8.20;99.90;;;;;;5091984;27;20199;-77
2022/05/07 01:54:07;;;;;;;17.57;15.97;;;8.20;99.90;;;;;;5108310;27;20215;-77
2022/05/07 01:56:35;;;;;;;18.97;17.17;;;8.10;99.90;;;;;;5103205;27;20195;-77
2022/05/07 01:59:01;;;;;;;18.83;16.90;;;8.10;99.90;;;;;;5104079;28;20748;-76
2022/05/07 02:01:28;;;;;;;19.30;17.37;;;8.10;99.90;;;;;;5106988;27;20632;-76
2022/05/07 02:03:55;;;;;;;19.70;17.77;;;8.10;99.90;;;;;;5100038;28;20705;-77
2022/05/07 02:06:27;;;;;;;17.20;15.67;;;8.10;99.90;;;;;;5100768;27;20208;-76
2022/05/07 02:08:54;;;;;;;15.93;14.43;;;8.10;99.90;;;;;;5097858;27;20192;-77
2022/05/07 02:11:26;;;;;;;19.50;17.77;;;8.10;99.90;;;;;;5100327;27;20226;-77
2022/05/07 02:13:53;;;;;;;19.87;18.17;;;8.10;99.90;;;;;;5102267;28;20209;-77
2022/05/07 02:16:20;;;;;;;18.87;17.17;;;8.10;99.90;;;;;;5105609;27;20200;-77
2022/05/07 02:18:47;;;;;;;18.93;17.30;;;8.10;99.90;;;;;;5107104;27;20196;-76
2022/05/07 02:21:14;;;;;;;19.00;17.27;;;8.10;99.90;;;;;;5104746;27;20203;-76
2022/05/07 02:23:41;;;;;;;19.63;17.93;;;8.00;99.90;;;;;;5101906;28;20216;-77
2022/05/07 02:26:08;;;;;;;21.03;19.20;;;8.10;99.90;;;;;;5100535;27;20256;-76
2022/05/07 02:28:37;;;;;;;20.40;18.53;;;8.00;99.90;;;;;;5095468;27;20200;-77
2022/05/07 02:31:07;;;;;;;12.67;10.97;;;8.00;99.90;;;;;;5101715;28;20208;-77
2022/05/07 02:33:34;;;;;;;12.33;10.27;;;8.00;99.90;;;;;;5105607;27;20257;-76
2022/05/07 02:36:02;;;;;;;15.83;12.93;;;8.00;99.90;;;;;;5103905;28;20684;-77
2022/05/07 02:38:29;;;;;;;13.27;11.67;;;8.00;99.90;;;;;;5100007;28;20740;-77
2022/05/07 02:43:43;;;;;;;13.83;11.53;;;7.90;99.90;;;;;;5095519;27;20215;-76
2022/05/07 02:46:15;;;;;;;13.40;10.97;;;7.90;99.90;;;;;;5106763;27;20200;-77
2022/05/07 02:48:44;;;;;;;15.60;12.27;;;7.90;99.90;;;;;;5107305;27;20199;-76
2022/05/07 02:51:13;;;;;;;14.20;11.63;;;7.90;99.90;;;;;;5106837;27;20204;-76
2022/05/07 02:53:42;;;;;;;16.03;14.37;;;7.90;99.90;;;;;;5098521;27;20216;-77
2022/05/07 02:56:09;;;;;;;13.80;11.50;;;7.90;99.90;;;;;;5106787;27;20203;-76
2022/05/07 02:58:36;;;;;;;14.60;11.53;;;7.90;99.90;;;;;;5079425;28;20196;-76
2022/05/07 03:01:04;;;;;;;13.77;11.37;;;7.90;99.90;;;;;;5105283;27;20196;-76
2022/05/07 03:03:31;;;;;;;13.17;11.37;;;7.90;99.90;;;;;;5095023;27;20602;-76
2022/05/07 03:06:04;;;;;;;12.27;10.97;;;7.90;99.90;;;;;;5080633;28;20210;-77
2022/05/07 03:08:32;;;;;;;12.97;11.47;;;7.90;99.90;;;;;;5090169;27;20579;-76
2022/05/07 03:11:01;;;;;;;14.50;11.17;;;7.80;99.90;;;;;;5100049;28;20624;-76
2022/05/07 03:13:30;;;;;;;14.27;11.57;;;7.80;99.90;;;;;;5104407;27;20306;-77
2022/05/07 03:15:57;;;;;;;15.37;12.20;;;7.80;99.90;;;;;;5103889;27;20197;-76
2022/05/07 03:18:25;;;;;;;14.87;12.40;;;7.70;99.90;;;;;;5102677;27;20198;-76
2022/05/07 03:20:54;;;;;;;20.13;18.30;;;7.70;99.90;;;;;;5105652;27;20622;-76
2022/05/07 03:23:21;;;;;;;15.37;12.60;;;7.70;99.90;;;;;;5105091;27;20483;-76
2022/05/07 03:25:51;;;;;;;14.20;12.33;;;7.70;99.90;;;;;;5102375;28;20196;-77
2022/05/07 03:28:18;;;;;;;14.13;12.53;;;7.80;99.90;;;;;;5103493;27;20207;-77
2022/05/07 03:30:46;;;;;;;15.23;13.17;;;7.70;99.90;;;;;;5102671;28;20708;-76
2022/05/07 03:33:14;;;;;;;16.40;12.67;;;7.70;99.90;;;;;;5089664;28;20226;-77
2022/05/07 03:35:45;;;;;;;16.37;11.90;;;7.70;99.90;;;;;;5096852;28;20222;-77
2022/05/07 03:38:12;;;;;;;13.70;11.10;;;7.70;99.90;;;;;;5093021;28;20285;-76
2022/05/07 03:40:49;;;;;;;14.13;11.33;;;7.60;99.90;;;;;;5091351;28;20205;-76
2022/05/07 03:43:16;;;;;;;15.53;13.93;;;7.60;99.90;;;;;;5101681;27;20222;-75
2022/05/07 03:45:43;;;;;;;15.27;12.83;;;7.60;99.90;;;;;;5104276;27;20557;-78
2022/05/07 03:48:11;;;;;;;12.67;11.37;;;7.60;99.90;;;;;;5110413;27;20668;-78
2022/05/07 03:50:38;;;;;;;14.07;12.43;;;7.60;99.90;;;;;;5091350;28;20200;-77
2022/05/07 03:55:52;;;;;;;14.83;13.33;;;7.50;99.90;;;;;;5096378;27;20198;-78
2022/05/07 03:58:29;;;;;;;15.70;13.43;;;7.50;99.90;;;;;;5104342;27;20517;-77
2022/05/07 04:00:58;;;;;;;15.20;13.80;;;7.50;99.90;;;;;;5105032;28;20271;-82
2022/05/07 04:03:26;;;;;;;14.23;12.83;;;7.50;99.90;;;;;;5099671;27;20231;-79
2022/05/07 04:05:56;;;;;;;15.33;13.73;;;7.50;99.90;;;;;;5103643;28;20649;-80
2022/05/07 04:08:26;;;;;;;15.77;13.93;;;7.50;99.90;;;;;;5095982;28;20195;-81
2022/05/07 04:10:54;;;;;;;13.93;12.57;;;7.50;99.90;;;;;;5096666;28;20199;-79
2022/05/07 04:13:24;;;;;;;14.80;13.30;;;7.50;99.90;;;;;;5101904;28;20222;-80
2022/05/07 04:16:02;;;;;;;15.67;13.60;;;7.50;99.90;;;;;;5101053;28;20631;-79
2022/05/07 04:18:35;;;;;;;14.60;13.10;;;7.50;99.90;;;;;;5103579;28;20202;-79
2022/05/07 04:21:07;;;;;;;16.10;13.80;;;7.60;99.90;;;;;;5102092;28;20616;-81
2022/05/07 04:23:35;;;;;;;15.80;14.10;;;7.60;99.90;;;;;;5108971;28;20215;-79
2022/05/07 04:26:02;;;;;;;15.60;14.03;;;7.60;99.90;;;;;;5102205;28;20197;-79
2022/05/07 04:28:31;;;;;;;15.43;13.67;;;7.60;99.90;;;;;;5102558;28;20210;-80
2022/05/07 04:30:58;;;;;;;15.70;14.23;;;7.60;99.90;;;;;;5101017;28;20200;-79
2022/05/07 04:33:31;;;;;;;16.07;14.47;;;7.50;99.90;;;;;;5107199;28;20267;-79
2022/05/07 04:36:03;;;;;;;15.73;14.13;;;7.50;99.90;;;;;;5108276;28;20693;-79
2022/05/07 04:38:31;;;;;;;16.10;13.67;;;7.50;99.90;;;;;;5102452;28;20226;-79
2022/05/07 04:41:00;;;;;;;16.97;13.17;;;7.60;99.90;;;;;;5103328;28;20211;-79
2022/05/07 04:43:31;;;;;;;15.50;13.87;;;7.70;99.90;;;;;;5087818;28;20220;-80
2022/05/07 04:45:58;;;;;;;15.60;13.30;;;7.80;99.90;;;;;;5104251;28;20413;-79
2022/05/07 04:48:28;;;;;;;13.70;12.30;;;7.90;99.90;;;;;;5106591;28;20199;-80
2022/05/07 04:50:56;;;;;;;13.37;10.60;;;8.00;99.90;;;;;;5103184;28;20629;-80
2022/05/07 04:53:53;;;;;;;12.33;10.10;;;8.20;99.90;;;;;;5103327;28;20215;-80
2022/05/07 04:56:24;;;;;;;10.43;9.33;;;8.40;99.90;;;;;;5104751;28;20230;-79
2022/05/07 04:59:00;;;;;;;14.67;13.40;;;8.60;99.90;;;;;;5102217;28;20202;-79
2022/05/07 05:01:35;;;;;;;10.47;9.37;;;8.70;99.90;;;;;;5100314;28;20211;-79
2022/05/07 05:04:06;;;;;;;12.23;9.37;;;8.80;99.90;;;;;;5108086;27;20698;-83
2022/05/07 05:06:36;;;;;;;12.03;9.83;;;9.00;99.90;;;;;;5089449;28;20193;-80
2022/05/07 05:09:08;;;;;;;11.00;9.90;;;9.10;99.90;;;;;;5101721;28;20236;-80
2022/05/07 05:11:44;;;;;;;12.30;10.40;;;9.30;99.90;;;;;;5100419;28;20261;-80
2022/05/07 05:16:59;;;;;;;11.40;10.23;;;9.80;99.90;;;;;;5109686;27;20196;-80
2022/05/07 05:19:26;;;;;;;10.40;9.30;;;10.10;99.90;;;;;;5107222;27;20246;-81
2022/05/07 05:21:54;;;;;;;15.73;14.17;;;10.40;99.90;;;;;;5099303;28;20194;-79
2022/05/07 05:24:26;;;;;;;11.40;10.40;;;10.70;99.90;;;;;;5101575;28;20208;-79
2022/05/07 05:26:55;;;;;;;14.47;12.87;;;10.80;99.90;;;;;;5103075;28;20193;-79
2022/05/07 05:29:28;;;;;;;12.33;11.13;;;11.20;99.90;;;;;;5104657;27;20310;-80
2022/05/07 05:31:56;;;;;;;11.83;9.30;;;11.50;99.90;;;;;;5102481;28;20678;-80
2022/05/07 05:34:28;;;;;;;10.33;8.90;;;11.80;99.90;;;;;;5098132;28;20231;-82
2022/05/07 05:36:57;;;;;;;15.33;12.23;;;12.20;99.90;;;;;;5098387;28;20296;-82
2022/05/07 05:39:26;;;;;;;11.30;10.20;;;12.50;99.90;;;;;;5111113;28;20679;-83
2022/05/07 05:41:58;;;;;;;9.63;8.63;;;12.90;99.90;;;;;;5107223;28;20204;-84
2022/05/07 05:44:26;;;;;;;13.73;12.63;;;13.10;99.90;;;;;;5115305;27;20289;-84
2022/05/07 05:46:53;;;;;;;13.00;11.90;;;13.40;99.90;;;;;;5106434;28;20303;-82
2022/05/07 05:49:22;;;;;;;13.57;12.33;;;13.50;99.90;;;;;;5111728;27;20757;-82
2022/05/07 05:51:51;;;;;;;11.63;9.23;;;13.50;99.90;;;;;;5106887;27;20283;-81
2022/05/07 05:54:18;;;;;;;12.57;11.47;;;13.50;99.90;;;;;;5108520;27;20203;-82
2022/05/07 05:56:45;;;;;;;12.67;11.57;;;13.20;99.90;;;;;;5111340;27;20197;-82
2022/05/07 05:59:14;;;;;;;14.47;13.37;;;13.10;99.90;;;;;;5108713;27;20232;-82
2022/05/07 06:01:48;;;;;;;12.50;11.43;;;12.90;99.90;;;;;;5106651;28;20197;-81
2022/05/07 06:04:20;;;;;;;10.83;9.93;;;12.90;99.90;;;;;;5110924;27;20213;-81
2022/05/07 06:06:48;;;;;;;11.13;10.03;;;12.90;99.90;;;;;;5101219;28;20201;-80
2022/05/07 06:09:15;;;;;;;11.17;10.27;;;13.00;99.90;;;;;;5098272;28;20237;-78
2022/05/07 06:11:44;;;;;;;12.77;11.57;;;13.20;99.90;;;;;;5102531;28;20198;-79
2022/05/07 06:14:11;;;;;;;12.50;11.40;;;13.30;99.90;;;;;;5102280;28;20192;-81
2022/05/07 06:16:40;;;;;;;13.57;12.33;;;13.40;99.90;;;;;;5108301;27;20223;-80
2022/05/07 06:19:11;;;;;;;13.80;12.60;;;13.60;99.90;;;;;;5105111;27;20416;-79
2022/05/07 06:21:43;;;;;;;14.60;13.40;;;13.70;99.90;;;;;;5108575;27;20265;-80
2022/05/07 06:29:43;;;;;;;14.00;12.90;;;13.90;99.90;;;;;;5106518;27;20265;-79
2022/05/07 06:32:14;;;;;;;11.27;7.67;;;13.90;99.90;;;;;;5106608;27;20213;-80
2022/05/07 06:34:41;;;;;;;12.90;11.90;;;13.80;99.90;;;;;;5109218;27;20200;-79
2022/05/07 06:37:09;;;;;;;7.80;6.77;;;13.80;99.90;;;;;;5095573;28;20581;-84
2022/05/07 06:39:39;;;;;;;12.17;10.07;;;14.10;99.90;;;;;;5117853;27;20194;-78
2022/05/07 06:42:08;;;;;;;10.20;7.57;;;14.30;99.90;;;;;;5108610;28;20233;-81
2022/05/07 06:44:44;;;;;;;10.53;6.97;;;14.20;99.90;;;;;;5105807;28;20211;-82
2022/05/07 06:47:13;;;;;;;9.17;7.37;;;14.10;99.90;;;;;;5105757;28;20203;-82
2022/05/07 06:49:41;;;;;;;8.60;7.80;;;14.00;99.90;;;;;;5099225;28;20186;-82
2022/05/07 06:52:08;;;;;;;8.10;7.30;;;14.00;99.90;;;;;;5104400;28;20312;-80
2022/05/07 06:54:36;;;;;;;7.97;6.87;;;14.20;99.90;;;;;;5109194;28;20283;-81
2022/05/07 06:57:03;;;;;;;8.00;7.30;;;14.70;99.90;;;;;;5109040;27;20194;-82
2022/05/07 06:59:31;;;;;;;14.27;13.00;;;15.00;99.90;;;;;;5104628;28;20193;-82
2022/05/07 07:01:58;;;;;;;13.70;12.50;;;15.30;99.90;;;;;;5107405;27;20203;-82
2022/05/07 07:04:27;;;;;;;8.67;7.70;;;15.30;99.90;;;;;;5107113;27;20715;-83
2022/05/07 07:06:54;;;;;;;14.50;13.40;;;15.40;99.90;;;;;;5088060;28;20215;-79
2022/05/07 07:09:21;;;;;;;8.37;7.57;;;15.60;99.90;;;;;;5094282;27;20255;-79
2022/05/07 07:11:48;;;;;;;13.00;8.93;;;16.00;99.90;;;;;;5106295;27;20199;-81
2022/05/07 07:14:15;;;;;;;8.13;7.30;;;16.30;99.90;;;;;;5105701;27;20219;-80
2022/05/07 07:16:42;;;;;;;7.77;6.93;;;16.40;99.90;;;;;;5101348;28;20215;-80
2022/05/07 07:19:09;;;;;;;9.13;8.27;;;16.70;99.90;;;;;;5100406;27;20295;-79
2022/05/07 07:21:37;;;;;;;11.90;7.67;;;16.80;99.90;;;;;;5099014;27;20257;-80
2022/05/07 07:24:05;;;;;;;9.17;8.30;;;17.20;99.90;;;;;;5107063;27;20766;-79
2022/05/07 07:26:32;;;;;;;12.37;11.43;;;17.60;99.90;;;;;;5103523;27;20683;-79
2022/05/07 07:28:59;;;;;;;7.87;7.00;;;18.00;99.90;;;;;;5102907;28;20300;-78
2022/05/07 07:31:26;;;;;;;12.43;11.33;;;18.30;99.90;;;;;;5108767;27;20293;-78
2022/05/07 07:33:53;;;;;;;9.43;8.53;;;18.70;99.90;;;;;;5101277;28;20226;-79
2022/05/07 07:36:20;;;;;;;15.40;11.53;;;18.70;99.90;;;;;;5107709;27;20198;-80
2022/05/07 07:38:49;;;;;;;12.13;7.47;;;19.00;99.90;;;;;;5102677;28;20680;-80
2022/05/07 07:41:17;;;;;;;11.00;8.03;;;19.50;99.90;;;;;;5099999;28;20283;-78
2022/05/07 07:43:44;;;;;;;8.90;7.27;;;19.60;99.90;;;;;;5105636;27;20223;-81
2022/05/07 07:48:55;;;;;;;9.80;7.40;;;20.20;99.90;;;;;;5096634;27;20197;-80
2022/05/07 07:51:22;;;;;;;8.67;7.27;;;20.20;99.90;;;;;;5099982;28;20722;-81
2022/05/07 07:53:50;;;;;;;7.60;6.60;;;20.30;99.90;;;;;;5109560;27;20219;-80
2022/05/07 07:56:18;;;;;;;7.53;6.33;;;20.40;99.90;;;;;;5099191;27;20193;-81
2022/05/07 07:58:45;;;;;;;6.60;5.90;;;20.50;99.90;;;;;;5107092;27;20197;-80
2022/05/07 08:01:12;;;;;;;9.00;8.10;;;20.80;99.90;;;;;;5099998;28;20515;-82
2022/05/07 08:03:39;;;;;;;7.10;6.40;;;20.90;99.90;;;;;;5101928;27;20230;-80
2022/05/07 08:06:06;;;;;;;8.17;7.20;;;20.80;99.90;;;;;;5106198;28;20193;-79
2022/05/07 08:14:03;;;;;;;7.00;6.30;;;20.90;99.90;;;;;;5088552;28;20630;-79
2022/05/07 08:16:30;;;;;;;9.77;7.27;;;21.30;99.90;;;;;;5095332;28;20201;-80
2022/05/07 08:18:57;;;;;;;6.80;6.10;;;21.20;99.90;;;;;;5092323;28;20204;-79
2022/05/07 08:21:25;;;;;;;8.50;6.70;;;21.20;99.90;;;;;;5092375;28;20194;-80
2022/05/07 08:23:52;;;;;;;9.97;8.90;;;21.30;99.90;;;;;;5097833;28;20569;-79
2022/05/07 08:26:20;;;;;;;14.60;13.30;;;20.60;99.90;;;;;;5098476;28;20220;-81
2022/05/07 08:28:51;;;;;;;12.67;11.70;;;20.20;99.90;;;;;;5107308;28;20220;-81
2022/05/07 08:31:18;;;;;;;8.93;7.33;;;20.30;99.90;;;;;;5099926;28;20197;-81
2022/05/07 08:33:45;;;;;;;8.17;7.07;;;20.40;99.90;;;;;;5101054;28;20217;-82
2022/05/07 08:36:13;;;;;;;9.83;7.27;;;20.40;99.90;;;;;;5094736;28;20201;-81
2022/05/07 08:38:40;;;;;;;12.30;11.20;;;20.60;99.90;;;;;;5102680;28;20211;-84
2022/05/07 08:41:07;;;;;;;10.00;7.93;;;20.90;99.90;;;;;;5108161;28;20193;-83
2022/05/07 08:43:37;;;;;;;8.43;7.50;;;20.90;99.90;;;;;;5112836;27;20220;-82
2022/05/07 08:46:10;;;;;;;8.33;7.53;;;21.40;99.90;;;;;;5111089;27;20199;-83
2022/05/07 08:48:37;;;;;;;8.30;7.10;;;21.30;99.90;;;;;;5107100;27;20203;-81
2022/05/07 08:51:05;;;;;;;7.80;6.67;;;21.20;99.90;;;;;;5109364;27;20657;-80
2022/05/07 08:53:33;;;;;;;10.67;7.27;;;21.30;99.90;;;;;;5106993;27;20216;-80
2022/05/07 08:56:00;;;;;;;9.53;7.13;;;21.40;99.90;;;;;;5109344;27;20235;-81
2022/05/07 08:58:29;;;;;;;12.40;11.30;;;21.30;99.90;;;;;;5111318;27;20197;-79
2022/05/07 09:00:59;;;;;;;13.13;11.90;;;21.20;99.90;;;;;;5102856;28;20193;-81
2022/05/07 09:03:26;;;;;;;10.03;9.13;;;21.60;99.90;;;;;;5090884;27;20649;-80
2022/05/07 09:05:53;;;;;;;9.10;8.20;;;21.80;99.90;;;;;;5108343;27;20196;-82
2022/05/07 09:08:26;;;;;;;14.43;12.87;;;21.50;99.90;;;;;;5124041;27;20198;-80
2022/05/07 09:10:55;;;;;;;13.67;12.47;;;21.40;99.90;;;;;;5115473;27;20558;-82
2022/05/07 09:13:21;;;;;;;14.50;13.20;;;21.30;99.90;;;;;;5106432;28;20235;-83
2022/05/07 09:15:51;;;;;;;14.60;13.13;;;21.10;99.90;;;;;;5109047;27;20698;-80
2022/05/07 09:18:21;;;;;;;18.20;13.50;;;21.10;99.90;;;;;;5112489;27;20613;-82
2022/05/07 09:23:42;;;;;;;12.90;11.60;;;20.50;99.90;;;;;;5100520;28;20217;-81
2022/05/07 09:26:10;;;;;;;10.17;8.40;;;20.70;99.90;;;;;;5098135;28;20193;-82
2022/05/07 09:28:38;;;;;;;11.93;10.73;;;21.00;99.90;;;;;;5095098;27;20203;-81
2022/05/07 09:31:05;;;;;;;8.80;8.00;;;21.00;99.90;;;;;;5109637;28;20600;-81
2022/05/07 09:33:34;;;;;;;10.83;8.97;;;20.90;99.90;;;;;;5105624;27;20216;-80
2022/05/07 09:36:10;;;;;;;11.10;9.77;;;21.30;99.90;;;;;;5108967;27;20212;-84
2022/05/07 09:38:38;;;;;;;9.83;8.87;;;21.30;99.90;;;;;;5097951;27;20749;-81
2022/05/07 09:41:05;;;;;;;10.27;9.37;;;21.70;99.90;;;;;;5099893;28;20204;-81
2022/05/07 09:43:33;;;;;;;11.83;10.63;;;21.90;99.90;;;;;;5099693;27;20224;-84
2022/05/07 09:46:00;;;;;;;12.30;11.30;;;21.40;99.90;;;;;;5105842;27;20215;-82
2022/05/07 09:48:28;;;;;;;12.50;11.53;;;21.30;99.90;;;;;;5124379;27;20197;-82
2022/05/07 09:50:58;;;;;;;10.97;9.97;;;21.40;99.90;;;;;;5123796;27;20599;-83
2022/05/07 09:58:53;;;;;;;10.57;9.67;;;21.90;99.90;;;;;;5097084;27;20293;-80
2022/05/07 10:01:44;;;;;;;9.83;8.83;;;22.00;99.90;;;;;;5105606;27;20205;-81
2022/05/07 10:04:28;;;;;;;8.43;7.63;;;21.90;99.90;;;;;;5123708;27;20677;-80
2022/05/07 10:07:16;;;;;;;8.93;7.40;;;21.60;99.90;;;;;;5128065;27;20652;-81
2022/05/07 10:09:53;;;;;;;8.43;7.53;;;21.30;99.90;;;;;;5123071;27;20181;-81
2022/05/07 10:12:22;;;;;;;8.70;6.87;;;21.00;99.90;;;;;;5121181;27;20221;-82
2022/05/07 10:14:49;;;;;;;8.27;7.00;;;20.90;99.90;;;;;;5109652;27;20208;-81
2022/05/07 10:17:21;;;;;;;9.73;6.20;;;20.70;99.90;;;;;;5107617;27;20257;-81
2022/05/07 10:19:50;;;;;;;8.23;7.53;;;20.70;99.90;;;;;;5099069;27;20192;-81
2022/05/07 10:22:21;;;;;;;11.20;10.30;;;20.60;99.90;;;;;;5106421;27;20224;-81
2022/05/07 10:24:49;;;;;;;9.03;8.30;;;20.50;99.90;;;;;;5099685;28;20250;-79
2022/05/07 10:27:23;;;;;;;7.57;6.80;;;20.30;99.90;;;;;;5098480;27;20564;-80
2022/05/07 10:29:51;;;;;;;8.80;7.83;;;20.40;99.90;;;;;;5112614;27;20550;-80
2022/05/07 10:32:21;;;;;;;6.30;5.80;;;20.40;99.90;;;;;;5124126;27;20278;-81
2022/05/07 10:34:52;;;;;;;6.87;6.00;;;20.80;99.90;;;;;;5107419;27;20716;-80
2022/05/07 10:37:20;;;;;;;7.13;6.43;;;21.00;99.90;;;;;;5100101;27;20209;-80
2022/05/07 10:39:52;;;;;;;7.30;6.60;;;20.90;99.90;;;;;;5119238;27;20555;-80
2022/05/07 10:42:21;;;;;;;7.07;6.37;;;20.70;99.90;;;;;;5099916;27;20286;-81
2022/05/07 10:44:49;;;;;;;10.70;7.03;;;20.60;99.90;;;;;;5106259;27;20193;-80
2022/05/07 10:47:19;;;;;;;7.87;6.40;;;20.70;99.90;;;;;;5101516;27;20200;-80
2022/05/07 10:49:57;;;;;;;7.00;6.30;;;20.60;99.90;;;;;;5124626;27;20236;-80
2022/05/07 10:52:32;;;;;;;6.53;5.80;;;20.50;99.90;;;;;;5106150;27;20707;-80
2022/05/07 10:55:07;;;;;;;9.80;6.93;;;20.40;99.90;;;;;;5103539;28;20219;-80
2022/05/07 10:57:42;;;;;;;8.30;7.60;;;20.20;99.90;;;;;;5125573;27;20191;-80
2022/05/07 11:00:12;;;;;;;7.70;7.10;;;20.20;99.90;;;;;;5117428;27;20193;-80
2022/05/07 11:02:39;;;;;;;6.67;6.17;;;20.20;99.90;;;;;;5113876;27;20220;-80
2022/05/07 11:05:07;;;;;;;8.57;7.10;;;20.20;99.90;;;;;;5122183;27;20562;-79
2022/05/07 11:07:36;;;;;;;6.90;6.40;;;20.20;99.90;;;;;;5124256;27;20244;-80
2022/05/07 11:10:04;;;;;;;7.50;6.90;;;20.30;99.90;;;;;;5103737;27;20192;-84
2022/05/07 11:12:31;;;;;;;6.87;6.27;;;20.60;99.90;;;;;;5106746;27;20213;-79
2022/05/07 11:14:58;;;;;;;7.23;6.63;;;20.90;99.90;;;;;;5126574;27;20208;-81
2022/05/07 11:17:34;;;;;;;7.17;6.50;;;21.00;99.90;;;;;;5120086;27;20197;-81
2022/05/07 11:20:02;;;;;;;7.90;7.23;;;21.10;99.90;;;;;;5125024;27;20237;-80
2022/05/07 11:22:31;;;;;;;7.63;7.13;;;21.40;99.90;;;;;;5096229;28;20295;-80
2022/05/07 11:25:01;;;;;;;8.13;7.33;;;21.70;99.90;;;;;;5094318;28;20193;-79
2022/05/07 11:27:32;;;;;;;6.33;5.27;;;22.00;99.90;;;;;;5111125;28;20719;-81
2022/05/07 11:30:00;;;;;;;4.47;3.80;;;22.20;99.90;;;;;;5096483;28;20197;-80
2022/05/07 11:32:37;;;;;;;6.47;4.10;;;22.20;99.90;;;;;;5097442;27;20604;-80
2022/05/07 11:35:05;;;;;;;4.53;4.13;;;22.50;99.90;;;;;;5112100;27;20216;-80
2022/05/07 11:37:40;;;;;;;9.97;6.30;;;22.60;99.90;;;;;;5111256;27;20205;-80
2022/05/07 11:40:09;;;;;;;6.73;5.37;;;22.70;99.90;;;;;;5091465;28;20624;-80
2022/05/07 11:42:39;;;;;;;5.90;5.00;;;22.40;99.90;;;;;;5112108;28;20204;-80
2022/05/07 11:47:57;;;;;;;7.40;4.47;;;21.90;99.90;;;;;;5094044;28;20542;-81
2022/05/07 11:50:27;;;;;;;4.50;4.03;;;21.60;99.90;;;;;;5096456;27;20681;-81
2022/05/07 11:52:55;;;;;;;4.20;3.47;;;21.40;99.90;;;;;;5099335;28;20236;-81
2022/05/07 11:55:28;;;;;;;7.20;3.40;;;21.40;99.90;;;;;;5110653;27;20209;-81
2022/05/07 11:57:56;;;;;;;3.90;3.60;;;21.70;99.90;;;;;;5106630;28;20246;-80
2022/05/07 12:00:24;;;;;;;4.30;3.60;;;21.90;99.90;;;;;;5122601;27;20246;-80
2022/05/07 12:02:54;;;;;;;5.20;3.67;;;21.90;99.90;;;;;;5114778;28;20232;-80
2022/05/07 12:05:21;;;;;;;4.90;3.40;;;22.00;99.00;;;;;;5098040;28;20192;-83
2022/05/07 12:07:50;;;;;;;4.37;3.57;;;21.80;99.90;;;;;;5120839;27;20260;-81
2022/05/07 12:10:18;;;;;;;3.73;3.30;;;22.00;99.90;;;;;;5127840;27;20200;-79
2022/05/07 12:12:47;;;;;;;4.40;4.00;;;22.30;99.90;;;;;;5122204;27;20288;-80
2022/05/07 12:15:14;;;;;;;5.23;4.20;;;22.50;99.40;;;;;;5120830;27;20277;-81
2022/05/07 12:17:52;;;;;;;3.97;3.20;;;22.50;99.80;;;;;;5090993;28;20638;-81
2022/05/07 12:20:21;;;;;;;3.97;3.20;;;22.80;99.90;;;;;;5119002;28;20230;-81
2022/05/07 12:31:04;;;;;;;4.43;3.60;;;22.70;98.80;;;;;;5105395;28;20204;-82
2022/05/07 12:33:31;;;;;;;4.13;3.47;;;22.60;99.70;;;;;;5121771;28;20253;-83
2022/05/07 12:35:58;;;;;;;7.47;3.63;;;22.60;98.00;;;;;;5119850;28;20239;-82
2022/05/07 12:38:25;;;;;;;4.30;3.80;;;22.40;98.70;;;;;;5096645;28;20260;-83
2022/05/07 12:40:52;;;;;;;4.50;4.10;;;22.20;98.90;;;;;;5123885;28;20196;-82
2022/05/07 12:43:20;;;;;;;4.83;3.60;;;22.20;98.50;;;;;;5105908;28;20220;-82
2022/05/07 12:45:49;;;;;;;4.00;3.57;;;22.00;97.30;;;;;;5105459;28;20185;-83
2022/05/07 12:48:15;;;;;;;4.77;3.60;;;21.70;97.20;;;;;;5101589;28;20193;-82
2022/05/07 12:50:45;;;;;;;5.23;4.80;;;21.70;98.80;;;;;;5120596;28;20196;-82
2022/05/07 12:53:14;;;;;;;6.30;4.20;;;22.00;99.90;;;;;;5118168;28;20290;-82
2022/05/07 12:55:41;;;;;;;4.40;4.00;;;21.90;99.20;;;;;;5124010;28;20622;-82
2022/05/07 12:58:09;;;;;;;8.90;4.47;;;21.80;98.90;;;;;;5104783;28;20193;-82
2022/05/07 13:00:37;;;;;;;6.97;4.17;;;21.80;99.40;;;;;;5103429;28;20752;-81
2022/05/07 13:03:04;;;;;;;4.33;3.93;;;21.80;97.30;;;;;;5121421;28;20658;-82
2022/05/07 13:05:33;;;;;;;5.80;5.30;;;21.60;98.10;;;;;;5125999;28;20605;-82
2022/05/07 13:08:01;;;;;;;7.60;6.97;;;21.40;98.30;;;;;;5117981;28;20185;-82
2022/05/07 13:10:29;;;;;;;7.87;7.27;;;21.50;98.20;;;;;;5106845;28;20250;-82
2022/05/07 13:12:55;;;;;;;8.10;7.50;;;21.70;99.10;;;;;;5095387;28;20697;-83
2022/05/07 13:15:22;;;;;;;8.33;7.60;;;21.80;98.50;;;;;;5105000;28;20209;-83
2022/05/07 13:17:50;;;;;;;7.17;6.70;;;22.10;99.60;;;;;;5122150;28;20201;-82
2022/05/07 13:20:17;;;;;;;8.00;7.40;;;22.20;98.40;;;;;;5108031;28;20271;-82
2022/05/07 13:22:44;;;;;;;8.03;7.43;;;22.10;97.40;;;;;;5124550;27;20611;-83
2022/05/07 13:25:11;;;;;;;8.20;7.50;;;22.10;97.50;;;;;;5109794;27;20197;-81
2022/05/07 13:27:39;;;;;;;7.80;7.10;;;22.10;97.80;;;;;;5119733;27;20248;-83
2022/05/07 13:30:08;;;;;;;7.83;7.10;;;21.70;97.40;;;;;;5101541;28;20193;-82
2022/05/07 13:32:35;;;;;;;8.00;7.40;;;21.40;97.60;;;;;;5127165;27;20287;-83
2022/05/07 13:35:04;;;;;;;8.40;7.70;;;21.40;98.40;;;;;;5105726;28;20189;-82
2022/05/07 13:37:30;;;;;;;9.97;9.03;;;21.40;98.70;;;;;;5127726;27;20765;-81